sensor_id;sensor_type;location;lat;lon;timestamp;P1;durP1;ratioP1;P2;durP2;ratioP2
75358;SDS011;64046;51.978;5.934;2023-04-24T00:01:40;4.82;;;3.78;;
75358;SDS011;64046;51.978;5.934;2023-04-24T00:04:09;5.78;;;4.15;;
75358;SDS011;64046;51.978;5.934;2023-04-24T00:06:40;5.10;;;3.83;;
75358;SDS011;64046;51.978;5.934;2023-04-24T00:09:09;6.30;;;4.70;;
75358;SDS011;64046;51.978;5.934;2023-04-24T00:11:41;5.40;;;4.72;;
75358;SDS011;64046;51.978;5.934;2023-04-24T00:14:10;5.95;;;4.95;;
75358;SDS011;64046;51.978;5.934;2023-04-24T00:16:39;10.65;;;5.63;;
75358;SDS011;64046;51.978;5.934;2023-04-24T00:19:08;5.35;;;4.60;;
75358;SDS011;64046;51.978;5.934;2023-04-24T00:21:38;7.03;;;5.93;;
75358;SDS011;64046;51.978;5.934;2023-04-24T00:24:08;6.85;;;4.93;;
75358;SDS011;64046;51.978;5.934;2023-04-24T00:26:40;7.15;;;4.03;;
75358;SDS011;64046;51.978;5.934;2023-04-24T00:29:09;5.20;;;2.78;;
75358;SDS011;64046;51.978;5.934;2023-04-24T00:31:38;2.65;;;2.45;;
75358;SDS011;64046;51.978;5.934;2023-04-24T00:34:08;2.95;;;2.20;;
75358;SDS011;64046;51.978;5.934;2023-04-24T00:36:37;2.30;;;2.03;;
75358;SDS011;64046;51.978;5.934;2023-04-24T00:39:06;2.50;;;1.85;;
75358;SDS011;64046;51.978;5.934;2023-04-24T00:41:36;2.50;;;1.90;;
75358;SDS011;64046;51.978;5.934;2023-04-24T00:44:08;2.83;;;1.83;;
75358;SDS011;64046;51.978;5.934;2023-04-24T00:46:37;2.40;;;1.90;;
75358;SDS011;64046;51.978;5.934;2023-04-24T00:49:06;2.55;;;1.98;;
75358;SDS011;64046;51.978;5.934;2023-04-24T00:51:36;1.98;;;1.60;;
75358;SDS011;64046;51.978;5.934;2023-04-24T00:54:06;2.25;;;1.55;;
75358;SDS011;64046;51.978;5.934;2023-04-24T00:56:36;2.45;;;1.98;;
75358;SDS011;64046;51.978;5.934;2023-04-24T00:59:05;3.45;;;2.10;;
75358;SDS011;64046;51.978;5.934;2023-04-24T01:01:37;3.55;;;2.17;;
75358;SDS011;64046;51.978;5.934;2023-04-24T01:04:08;3.03;;;2.35;;
75358;SDS011;64046;51.978;5.934;2023-04-24T01:06:39;4.43;;;3.22;;
75358;SDS011;64046;51.978;5.934;2023-04-24T01:09:08;6.22;;;3.38;;
75358;SDS011;64046;51.978;5.934;2023-04-24T01:11:39;4.53;;;3.92;;
75358;SDS011;64046;51.978;5.934;2023-04-24T01:14:14;6.00;;;4.95;;
75358;SDS011;64046;51.978;5.934;2023-04-24T01:16:43;9.95;;;6.55;;
75358;SDS011;64046;51.978;5.934;2023-04-24T01:19:12;11.35;;;7.68;;
75358;SDS011;64046;51.978;5.934;2023-04-24T01:21:44;8.98;;;7.13;;
75358;SDS011;64046;51.978;5.934;2023-04-24T01:24:20;14.20;;;9.25;;
75358;SDS011;64046;51.978;5.934;2023-04-24T01:26:49;13.43;;;9.73;;
75358;SDS011;64046;51.978;5.934;2023-04-24T01:29:18;15.43;;;10.32;;
75358;SDS011;64046;51.978;5.934;2023-04-24T01:31:48;13.93;;;10.05;;
75358;SDS011;64046;51.978;5.934;2023-04-24T01:34:17;14.95;;;9.85;;
75358;SDS011;64046;51.978;5.934;2023-04-24T01:36:46;13.63;;;9.18;;
75358;SDS011;64046;51.978;5.934;2023-04-24T01:39:16;13.10;;;9.38;;
75358;SDS011;64046;51.978;5.934;2023-04-24T01:41:49;11.45;;;9.07;;
75358;SDS011;64046;51.978;5.934;2023-04-24T01:44:18;14.57;;;9.95;;
75358;SDS011;64046;51.978;5.934;2023-04-24T01:46:48;13.95;;;10.45;;
75358;SDS011;64046;51.978;5.934;2023-04-24T01:49:17;11.95;;;8.52;;
75358;SDS011;64046;51.978;5.934;2023-04-24T01:51:46;11.27;;;8.68;;
75358;SDS011;64046;51.978;5.934;2023-04-24T01:54:15;14.80;;;11.25;;
75358;SDS011;64046;51.978;5.934;2023-04-24T01:56:45;12.40;;;9.57;;
75358;SDS011;64046;51.978;5.934;2023-04-24T01:59:17;18.67;;;12.27;;
75358;SDS011;64046;51.978;5.934;2023-04-24T02:01:47;15.75;;;11.27;;
75358;SDS011;64046;51.978;5.934;2023-04-24T02:04:18;12.52;;;9.35;;
75358;SDS011;64046;51.978;5.934;2023-04-24T02:06:48;13.52;;;9.73;;
75358;SDS011;64046;51.978;5.934;2023-04-24T02:09:17;11.55;;;8.85;;
75358;SDS011;64046;51.978;5.934;2023-04-24T02:11:46;11.43;;;7.35;;
75358;SDS011;64046;51.978;5.934;2023-04-24T02:14:18;18.23;;;11.38;;
75358;SDS011;64046;51.978;5.934;2023-04-24T02:16:47;14.90;;;10.35;;
75358;SDS011;64046;51.978;5.934;2023-04-24T02:19:16;13.70;;;10.32;;
75358;SDS011;64046;51.978;5.934;2023-04-24T02:21:45;16.35;;;11.75;;
75358;SDS011;64046;51.978;5.934;2023-04-24T02:24:14;16.73;;;12.90;;
75358;SDS011;64046;51.978;5.934;2023-04-24T02:26:43;20.48;;;13.52;;
75358;SDS011;64046;51.978;5.934;2023-04-24T02:29:12;17.42;;;12.57;;
75358;SDS011;64046;51.978;5.934;2023-04-24T02:31:44;22.45;;;13.73;;
75358;SDS011;64046;51.978;5.934;2023-04-24T02:34:14;18.23;;;13.55;;
75358;SDS011;64046;51.978;5.934;2023-04-24T02:36:43;19.20;;;13.60;;
75358;SDS011;64046;51.978;5.934;2023-04-24T02:39:14;19.23;;;13.25;;
75358;SDS011;64046;51.978;5.934;2023-04-24T02:41:44;16.23;;;11.98;;
75358;SDS011;64046;51.978;5.934;2023-04-24T02:44:16;19.30;;;13.98;;
75358;SDS011;64046;51.978;5.934;2023-04-24T02:46:48;16.75;;;12.93;;
75358;SDS011;64046;51.978;5.934;2023-04-24T02:49:17;19.77;;;13.50;;
75358;SDS011;64046;51.978;5.934;2023-04-24T02:51:46;21.65;;;13.57;;
75358;SDS011;64046;51.978;5.934;2023-04-24T02:54:16;16.70;;;12.30;;
75358;SDS011;64046;51.978;5.934;2023-04-24T02:56:45;19.20;;;13.13;;
75358;SDS011;64046;51.978;5.934;2023-04-24T02:59:14;20.75;;;13.15;;
75358;SDS011;64046;51.978;5.934;2023-04-24T03:01:43;16.15;;;10.88;;
75358;SDS011;64046;51.978;5.934;2023-04-24T03:04:15;16.48;;;11.60;;
75358;SDS011;64046;51.978;5.934;2023-04-24T03:06:46;17.92;;;11.55;;
75358;SDS011;64046;51.978;5.934;2023-04-24T03:09:17;17.30;;;12.32;;
75358;SDS011;64046;51.978;5.934;2023-04-24T03:11:47;22.05;;;13.90;;
75358;SDS011;64046;51.978;5.934;2023-04-24T03:14:16;15.20;;;10.35;;
75358;SDS011;64046;51.978;5.934;2023-04-24T03:16:45;16.77;;;10.73;;
75358;SDS011;64046;51.978;5.934;2023-04-24T03:19:17;16.45;;;12.05;;
75358;SDS011;64046;51.978;5.934;2023-04-24T03:21:57;14.63;;;9.88;;
75358;SDS011;64046;51.978;5.934;2023-04-24T03:24:26;13.82;;;10.15;;
75358;SDS011;64046;51.978;5.934;2023-04-24T03:26:56;15.38;;;11.02;;
75358;SDS011;64046;51.978;5.934;2023-04-24T03:29:52;16.83;;;11.23;;
75358;SDS011;64046;51.978;5.934;2023-04-24T03:32:26;15.15;;;11.63;;
75358;SDS011;64046;51.978;5.934;2023-04-24T03:34:58;13.73;;;10.95;;
75358;SDS011;64046;51.978;5.934;2023-04-24T03:37:28;12.88;;;9.63;;
75358;SDS011;64046;51.978;5.934;2023-04-24T03:40:16;17.80;;;12.60;;
75358;SDS011;64046;51.978;5.934;2023-04-24T03:42:46;19.02;;;12.63;;
75358;SDS011;64046;51.978;5.934;2023-04-24T03:45:15;19.77;;;14.95;;
75358;SDS011;64046;51.978;5.934;2023-04-24T03:47:48;21.90;;;15.95;;
75358;SDS011;64046;51.978;5.934;2023-04-24T03:50:19;24.05;;;16.60;;
75358;SDS011;64046;51.978;5.934;2023-04-24T03:52:49;24.45;;;16.05;;
75358;SDS011;64046;51.978;5.934;2023-04-24T03:55:30;29.58;;;18.30;;
75358;SDS011;64046;51.978;5.934;2023-04-24T03:57:59;25.33;;;17.63;;
75358;SDS011;64046;51.978;5.934;2023-04-24T04:00:28;23.25;;;16.52;;
75358;SDS011;64046;51.978;5.934;2023-04-24T04:03:19;25.88;;;18.30;;
75358;SDS011;64046;51.978;5.934;2023-04-24T04:05:51;31.92;;;20.00;;
75358;SDS011;64046;51.978;5.934;2023-04-24T04:08:21;24.70;;;16.75;;
75358;SDS011;64046;51.978;5.934;2023-04-24T04:10:50;25.20;;;17.67;;
75358;SDS011;64046;51.978;5.934;2023-04-24T04:13:19;24.30;;;16.17;;
75358;SDS011;64046;51.978;5.934;2023-04-24T04:15:49;29.67;;;20.83;;
75358;SDS011;64046;51.978;5.934;2023-04-24T04:18:18;26.60;;;18.40;;
75358;SDS011;64046;51.978;5.934;2023-04-24T04:20:47;24.65;;;16.02;;
75358;SDS011;64046;51.978;5.934;2023-04-24T04:23:19;26.50;;;17.25;;
75358;SDS011;64046;51.978;5.934;2023-04-24T04:25:59;22.95;;;16.42;;
75358;SDS011;64046;51.978;5.934;2023-04-24T04:28:40;22.77;;;16.55;;
75358;SDS011;64046;51.978;5.934;2023-04-24T04:31:11;23.75;;;15.45;;
75358;SDS011;64046;51.978;5.934;2023-04-24T04:33:40;20.83;;;15.88;;
75358;SDS011;64046;51.978;5.934;2023-04-24T04:36:12;22.83;;;16.10;;
75358;SDS011;64046;51.978;5.934;2023-04-24T04:38:45;23.95;;;16.50;;
75358;SDS011;64046;51.978;5.934;2023-04-24T04:41:44;23.52;;;16.00;;
75358;SDS011;64046;51.978;5.934;2023-04-24T04:44:16;23.60;;;15.93;;
75358;SDS011;64046;51.978;5.934;2023-04-24T04:46:46;27.35;;;17.63;;
75358;SDS011;64046;51.978;5.934;2023-04-24T04:49:24;27.60;;;15.23;;
75358;SDS011;64046;51.978;5.934;2023-04-24T04:51:57;21.00;;;15.32;;
75358;SDS011;64046;51.978;5.934;2023-04-24T04:54:27;24.40;;;16.38;;
75358;SDS011;64046;51.978;5.934;2023-04-24T04:56:57;22.48;;;16.40;;
75358;SDS011;64046;51.978;5.934;2023-04-24T04:59:26;21.23;;;13.70;;
75358;SDS011;64046;51.978;5.934;2023-04-24T05:02:02;21.25;;;15.25;;
75358;SDS011;64046;51.978;5.934;2023-04-24T05:04:31;17.65;;;13.80;;
75358;SDS011;64046;51.978;5.934;2023-04-24T05:07:03;21.83;;;14.32;;
75358;SDS011;64046;51.978;5.934;2023-04-24T05:09:35;18.15;;;13.00;;
75358;SDS011;64046;51.978;5.934;2023-04-24T05:12:05;26.77;;;15.38;;
75358;SDS011;64046;51.978;5.934;2023-04-24T05:14:41;24.30;;;16.05;;
75358;SDS011;64046;51.978;5.934;2023-04-24T05:17:11;17.85;;;12.95;;
75358;SDS011;64046;51.978;5.934;2023-04-24T05:19:40;21.02;;;13.63;;
75358;SDS011;64046;51.978;5.934;2023-04-24T05:22:13;19.77;;;12.32;;
75358;SDS011;64046;51.978;5.934;2023-04-24T05:24:49;20.40;;;14.30;;
75358;SDS011;64046;51.978;5.934;2023-04-24T05:27:35;20.85;;;14.43;;
75358;SDS011;64046;51.978;5.934;2023-04-24T05:30:11;15.75;;;10.90;;
75358;SDS011;64046;51.978;5.934;2023-04-24T05:32:41;17.05;;;11.88;;
75358;SDS011;64046;51.978;5.934;2023-04-24T05:35:10;15.85;;;11.20;;
75358;SDS011;64046;51.978;5.934;2023-04-24T05:37:42;13.95;;;10.25;;
75358;SDS011;64046;51.978;5.934;2023-04-24T05:40:12;15.02;;;10.35;;
75358;SDS011;64046;51.978;5.934;2023-04-24T05:42:42;14.35;;;10.90;;
75358;SDS011;64046;51.978;5.934;2023-04-24T05:45:11;15.95;;;10.68;;
75358;SDS011;64046;51.978;5.934;2023-04-24T05:47:43;13.80;;;10.15;;
75358;SDS011;64046;51.978;5.934;2023-04-24T05:50:13;13.68;;;10.23;;
75358;SDS011;64046;51.978;5.934;2023-04-24T05:52:44;15.52;;;11.02;;
75358;SDS011;64046;51.978;5.934;2023-04-24T05:55:23;16.15;;;11.00;;
75358;SDS011;64046;51.978;5.934;2023-04-24T05:57:53;15.15;;;9.55;;
75358;SDS011;64046;51.978;5.934;2023-04-24T06:00:24;11.93;;;8.30;;
75358;SDS011;64046;51.978;5.934;2023-04-24T06:03:01;12.45;;;9.50;;
75358;SDS011;64046;51.978;5.934;2023-04-24T06:05:31;10.07;;;7.40;;
75358;SDS011;64046;51.978;5.934;2023-04-24T06:08:05;14.35;;;10.10;;
75358;SDS011;64046;51.978;5.934;2023-04-24T06:10:38;14.52;;;9.43;;
75358;SDS011;64046;51.978;5.934;2023-04-24T06:13:08;13.88;;;8.68;;
75358;SDS011;64046;51.978;5.934;2023-04-24T06:15:41;11.48;;;7.80;;
75358;SDS011;64046;51.978;5.934;2023-04-24T06:18:16;10.05;;;7.22;;
75358;SDS011;64046;51.978;5.934;2023-04-24T06:20:47;9.48;;;7.03;;
75358;SDS011;64046;51.978;5.934;2023-04-24T06:23:19;9.68;;;7.32;;
75358;SDS011;64046;51.978;5.934;2023-04-24T06:25:48;12.32;;;8.57;;
75358;SDS011;64046;51.978;5.934;2023-04-24T06:28:17;9.55;;;6.90;;
75358;SDS011;64046;51.978;5.934;2023-04-24T06:30:46;10.45;;;6.78;;
75358;SDS011;64046;51.978;5.934;2023-04-24T06:33:15;8.77;;;6.80;;
75358;SDS011;64046;51.978;5.934;2023-04-24T06:35:44;11.77;;;8.02;;
75358;SDS011;64046;51.978;5.934;2023-04-24T06:38:14;10.52;;;6.82;;
75358;SDS011;64046;51.978;5.934;2023-04-24T06:40:45;9.32;;;7.03;;
75358;SDS011;64046;51.978;5.934;2023-04-24T06:43:14;9.05;;;6.50;;
75358;SDS011;64046;51.978;5.934;2023-04-24T06:45:44;8.82;;;6.35;;
75358;SDS011;64046;51.978;5.934;2023-04-24T06:48:13;8.98;;;6.78;;
75358;SDS011;64046;51.978;5.934;2023-04-24T06:50:42;8.48;;;6.00;;
75358;SDS011;64046;51.978;5.934;2023-04-24T06:53:12;8.70;;;6.13;;
75358;SDS011;64046;51.978;5.934;2023-04-24T06:55:41;7.60;;;5.78;;
75358;SDS011;64046;51.978;5.934;2023-04-24T06:58:14;8.10;;;5.38;;
75358;SDS011;64046;51.978;5.934;2023-04-24T07:00:43;7.53;;;4.72;;
75358;SDS011;64046;51.978;5.934;2023-04-24T07:03:12;8.80;;;5.78;;
75358;SDS011;64046;51.978;5.934;2023-04-24T07:05:41;6.55;;;4.57;;
75358;SDS011;64046;51.978;5.934;2023-04-24T07:08:12;8.23;;;5.20;;
75358;SDS011;64046;51.978;5.934;2023-04-24T07:10:43;8.40;;;3.90;;
75358;SDS011;64046;51.978;5.934;2023-04-24T07:13:14;4.72;;;3.78;;
75358;SDS011;64046;51.978;5.934;2023-04-24T07:15:44;3.85;;;2.80;;
75358;SDS011;64046;51.978;5.934;2023-04-24T07:18:14;3.83;;;2.95;;
75358;SDS011;64046;51.978;5.934;2023-04-24T07:20:43;3.45;;;2.58;;
75358;SDS011;64046;51.978;5.934;2023-04-24T07:23:13;3.97;;;3.03;;
75358;SDS011;64046;51.978;5.934;2023-04-24T07:25:42;3.30;;;2.42;;
75358;SDS011;64046;51.978;5.934;2023-04-24T07:28:11;5.22;;;2.55;;
75358;SDS011;64046;51.978;5.934;2023-04-24T07:30:43;3.10;;;2.15;;
75358;SDS011;64046;51.978;5.934;2023-04-24T07:33:12;3.40;;;2.22;;
75358;SDS011;64046;51.978;5.934;2023-04-24T07:35:41;3.67;;;2.10;;
75358;SDS011;64046;51.978;5.934;2023-04-24T07:38:10;3.20;;;1.92;;
75358;SDS011;64046;51.978;5.934;2023-04-24T07:40:39;1.67;;;1.25;;
75358;SDS011;64046;51.978;5.934;2023-04-24T07:43:08;3.30;;;1.73;;
75358;SDS011;64046;51.978;5.934;2023-04-24T07:45:37;3.50;;;2.10;;
75358;SDS011;64046;51.978;5.934;2023-04-24T07:48:09;3.72;;;2.20;;
75358;SDS011;64046;51.978;5.934;2023-04-24T07:50:40;8.88;;;2.40;;
75358;SDS011;64046;51.978;5.934;2023-04-24T07:53:09;4.60;;;3.30;;
75358;SDS011;64046;51.978;5.934;2023-04-24T07:55:38;6.18;;;3.50;;
75358;SDS011;64046;51.978;5.934;2023-04-24T07:58:07;7.45;;;4.03;;
75358;SDS011;64046;51.978;5.934;2023-04-24T08:00:36;6.95;;;4.60;;
75358;SDS011;64046;51.978;5.934;2023-04-24T08:03:08;7.32;;;4.70;;
75358;SDS011;64046;51.978;5.934;2023-04-24T08:05:38;8.90;;;5.43;;
75358;SDS011;64046;51.978;5.934;2023-04-24T08:08:07;7.13;;;4.97;;
75358;SDS011;64046;51.978;5.934;2023-04-24T08:10:37;6.97;;;5.05;;
75358;SDS011;64046;51.978;5.934;2023-04-24T08:13:06;8.98;;;5.43;;
75358;SDS011;64046;51.978;5.934;2023-04-24T08:15:37;9.10;;;5.53;;
75358;SDS011;64046;51.978;5.934;2023-04-24T08:18:08;8.13;;;5.43;;
75358;SDS011;64046;51.978;5.934;2023-04-24T08:20:39;9.10;;;5.20;;
75358;SDS011;64046;51.978;5.934;2023-04-24T08:23:08;7.88;;;5.07;;
75358;SDS011;64046;51.978;5.934;2023-04-24T08:25:37;9.80;;;5.60;;
75358;SDS011;64046;51.978;5.934;2023-04-24T08:28:06;8.13;;;5.18;;
75358;SDS011;64046;51.978;5.934;2023-04-24T08:30:37;9.70;;;5.72;;
75358;SDS011;64046;51.978;5.934;2023-04-24T08:33:09;11.80;;;5.88;;
75358;SDS011;64046;51.978;5.934;2023-04-24T08:35:38;7.13;;;5.30;;
75358;SDS011;64046;51.978;5.934;2023-04-24T08:38:07;12.05;;;6.20;;
75358;SDS011;64046;51.978;5.934;2023-04-24T08:40:37;10.52;;;6.00;;
75358;SDS011;64046;51.978;5.934;2023-04-24T08:43:06;11.95;;;6.22;;
75358;SDS011;64046;51.978;5.934;2023-04-24T08:45:36;10.63;;;6.70;;
75358;SDS011;64046;51.978;5.934;2023-04-24T08:48:06;12.88;;;7.10;;
75358;SDS011;64046;51.978;5.934;2023-04-24T08:50:38;14.45;;;7.10;;
75358;SDS011;64046;51.978;5.934;2023-04-24T08:53:10;13.57;;;6.38;;
75358;SDS011;64046;51.978;5.934;2023-04-24T08:55:39;14.60;;;7.32;;
75358;SDS011;64046;51.978;5.934;2023-04-24T08:58:12;16.20;;;7.68;;
75358;SDS011;64046;51.978;5.934;2023-04-24T09:00:41;10.95;;;6.75;;
75358;SDS011;64046;51.978;5.934;2023-04-24T09:03:15;12.75;;;7.07;;
75358;SDS011;64046;51.978;5.934;2023-04-24T09:05:46;9.23;;;5.43;;
75358;SDS011;64046;51.978;5.934;2023-04-24T09:08:16;11.38;;;5.03;;
75358;SDS011;64046;51.978;5.934;2023-04-24T09:10:47;10.07;;;4.90;;
75358;SDS011;64046;51.978;5.934;2023-04-24T09:13:16;10.02;;;4.93;;
75358;SDS011;64046;51.978;5.934;2023-04-24T09:15:46;10.70;;;4.20;;
75358;SDS011;64046;51.978;5.934;2023-04-24T09:18:18;11.00;;;3.88;;
75358;SDS011;64046;51.978;5.934;2023-04-24T09:20:57;7.50;;;3.60;;
75358;SDS011;64046;51.978;5.934;2023-04-24T09:23:27;12.93;;;4.47;;
75358;SDS011;64046;51.978;5.934;2023-04-24T09:25:57;11.85;;;4.57;;
75358;SDS011;64046;51.978;5.934;2023-04-24T09:28:28;9.95;;;3.92;;
75358;SDS011;64046;51.978;5.934;2023-04-24T09:31:02;11.07;;;4.18;;
75358;SDS011;64046;51.978;5.934;2023-04-24T09:33:35;14.77;;;3.60;;
75358;SDS011;64046;51.978;5.934;2023-04-24T09:36:05;14.55;;;3.58;;
75358;SDS011;64046;51.978;5.934;2023-04-24T09:38:35;17.77;;;3.70;;
75358;SDS011;64046;51.978;5.934;2023-04-24T09:41:05;13.65;;;3.35;;
75358;SDS011;64046;51.978;5.934;2023-04-24T09:43:36;12.80;;;3.25;;
75358;SDS011;64046;51.978;5.934;2023-04-24T09:46:06;10.05;;;2.75;;
75358;SDS011;64046;51.978;5.934;2023-04-24T09:48:38;15.98;;;3.63;;
75358;SDS011;64046;51.978;5.934;2023-04-24T09:51:08;10.38;;;2.78;;
75358;SDS011;64046;51.978;5.934;2023-04-24T09:53:37;12.35;;;3.30;;
75358;SDS011;64046;51.978;5.934;2023-04-24T09:56:12;10.88;;;2.90;;
75358;SDS011;64046;51.978;5.934;2023-04-24T09:58:41;8.48;;;2.67;;
75358;SDS011;64046;51.978;5.934;2023-04-24T10:01:10;11.13;;;3.47;;
75358;SDS011;64046;51.978;5.934;2023-04-24T10:03:42;17.33;;;3.20;;
75358;SDS011;64046;51.978;5.934;2023-04-24T10:06:12;14.82;;;3.60;;
75358;SDS011;64046;51.978;5.934;2023-04-24T10:08:41;18.52;;;3.20;;
75358;SDS011;64046;51.978;5.934;2023-04-24T10:11:12;14.65;;;3.47;;
75358;SDS011;64046;51.978;5.934;2023-04-24T10:13:41;9.02;;;3.00;;
75358;SDS011;64046;51.978;5.934;2023-04-24T10:16:10;15.82;;;3.38;;
75358;SDS011;64046;51.978;5.934;2023-04-24T10:18:42;15.32;;;2.90;;
75358;SDS011;64046;51.978;5.934;2023-04-24T10:21:12;10.93;;;3.08;;
75358;SDS011;64046;51.978;5.934;2023-04-24T10:23:43;12.05;;;3.33;;
75358;SDS011;64046;51.978;5.934;2023-04-24T10:26:12;12.15;;;2.90;;
75358;SDS011;64046;51.978;5.934;2023-04-24T10:28:44;15.02;;;3.65;;
75358;SDS011;64046;51.978;5.934;2023-04-24T10:31:14;13.30;;;3.45;;
75358;SDS011;64046;51.978;5.934;2023-04-24T10:33:46;8.50;;;3.40;;
75358;SDS011;64046;51.978;5.934;2023-04-24T10:36:16;9.85;;;2.63;;
75358;SDS011;64046;51.978;5.934;2023-04-24T10:38:46;11.20;;;3.25;;
75358;SDS011;64046;51.978;5.934;2023-04-24T10:41:16;12.13;;;3.22;;
75358;SDS011;64046;51.978;5.934;2023-04-24T10:43:58;11.52;;;2.95;;
75358;SDS011;64046;51.978;5.934;2023-04-24T10:46:33;8.20;;;3.13;;
75358;SDS011;64046;51.978;5.934;2023-04-24T10:49:06;11.60;;;3.25;;
75358;SDS011;64046;51.978;5.934;2023-04-24T10:51:45;12.30;;;3.85;;
75358;SDS011;64046;51.978;5.934;2023-04-24T10:54:22;7.68;;;2.85;;
75358;SDS011;64046;51.978;5.934;2023-04-24T11:02:45;6.28;;;2.03;;
75358;SDS011;64046;51.978;5.934;2023-04-24T11:05:21;11.60;;;2.72;;
75358;SDS011;64046;51.978;5.934;2023-04-24T11:10:43;5.97;;;2.15;;
75358;SDS011;64046;51.978;5.934;2023-04-24T11:13:14;6.25;;;2.05;;
75358;SDS011;64046;51.978;5.934;2023-04-24T11:15:44;7.00;;;1.98;;
75358;SDS011;64046;51.978;5.934;2023-04-24T11:18:39;3.75;;;1.90;;
75358;SDS011;64046;51.978;5.934;2023-04-24T11:21:15;6.32;;;1.83;;
75358;SDS011;64046;51.978;5.934;2023-04-24T11:23:45;9.82;;;1.85;;
75358;SDS011;64046;51.978;5.934;2023-04-24T11:26:17;25.65;;;10.02;;
75358;SDS011;64046;51.978;5.934;2023-04-24T11:28:50;5.65;;;2.13;;
75358;SDS011;64046;51.978;5.934;2023-04-24T11:31:35;3.90;;;1.60;;
75358;SDS011;64046;51.978;5.934;2023-04-24T11:34:08;6.00;;;2.33;;
75358;SDS011;64046;51.978;5.934;2023-04-24T11:36:42;5.85;;;1.67;;
75358;SDS011;64046;51.978;5.934;2023-04-24T11:39:11;3.97;;;1.67;;
75358;SDS011;64046;51.978;5.934;2023-04-24T11:41:41;4.90;;;1.80;;
75358;SDS011;64046;51.978;5.934;2023-04-24T11:44:10;6.28;;;1.40;;
75358;SDS011;64046;51.978;5.934;2023-04-24T11:46:40;4.55;;;1.42;;
75358;SDS011;64046;51.978;5.934;2023-04-24T11:49:09;2.08;;;1.30;;
75358;SDS011;64046;51.978;5.934;2023-04-24T11:51:41;2.35;;;1.10;;
75358;SDS011;64046;51.978;5.934;2023-04-24T11:54:10;3.72;;;1.30;;
75358;SDS011;64046;51.978;5.934;2023-04-24T11:56:39;3.22;;;1.10;;
75358;SDS011;64046;51.978;5.934;2023-04-24T11:59:13;5.05;;;1.38;;
75358;SDS011;64046;51.978;5.934;2023-04-24T12:01:43;5.43;;;1.30;;
75358;SDS011;64046;51.978;5.934;2023-04-24T12:04:15;5.07;;;1.45;;
75358;SDS011;64046;51.978;5.934;2023-04-24T12:07:04;5.53;;;1.75;;
75358;SDS011;64046;51.978;5.934;2023-04-24T12:09:40;6.00;;;1.73;;
75358;SDS011;64046;51.978;5.934;2023-04-24T12:12:11;4.50;;;1.40;;
75358;SDS011;64046;51.978;5.934;2023-04-24T12:14:44;3.83;;;1.27;;
75358;SDS011;64046;51.978;5.934;2023-04-24T12:17:16;6.85;;;1.60;;
75358;SDS011;64046;51.978;5.934;2023-04-24T12:19:46;3.67;;;1.25;;
75358;SDS011;64046;51.978;5.934;2023-04-24T12:22:19;3.60;;;1.35;;
75358;SDS011;64046;51.978;5.934;2023-04-24T12:24:58;5.82;;;1.60;;
75358;SDS011;64046;51.978;5.934;2023-04-24T12:27:30;4.68;;;2.03;;
75358;SDS011;64046;51.978;5.934;2023-04-24T12:30:02;3.03;;;1.63;;
75358;SDS011;64046;51.978;5.934;2023-04-24T12:32:32;3.95;;;1.48;;
75358;SDS011;64046;51.978;5.934;2023-04-24T12:35:03;5.43;;;1.58;;
75358;SDS011;64046;51.978;5.934;2023-04-24T12:37:36;10.00;;;1.92;;
75358;SDS011;64046;51.978;5.934;2023-04-24T12:40:08;3.97;;;1.50;;
75358;SDS011;64046;51.978;5.934;2023-04-24T12:42:42;3.78;;;1.10;;
75358;SDS011;64046;51.978;5.934;2023-04-24T12:45:12;3.25;;;1.35;;
75358;SDS011;64046;51.978;5.934;2023-04-24T12:47:42;4.00;;;1.55;;
75358;SDS011;64046;51.978;5.934;2023-04-24T12:50:12;3.13;;;1.10;;
75358;SDS011;64046;51.978;5.934;2023-04-24T12:52:45;3.20;;;1.40;;
75358;SDS011;64046;51.978;5.934;2023-04-24T12:55:14;4.60;;;1.23;;
75358;SDS011;64046;51.978;5.934;2023-04-24T12:57:43;2.03;;;1.00;;
75358;SDS011;64046;51.978;5.934;2023-04-24T13:00:12;4.38;;;1.23;;
75358;SDS011;64046;51.978;5.934;2023-04-24T13:02:42;3.78;;;1.20;;
75358;SDS011;64046;51.978;5.934;2023-04-24T13:05:11;5.20;;;1.30;;
75358;SDS011;64046;51.978;5.934;2023-04-24T13:07:41;3.65;;;1.30;;
75358;SDS011;64046;51.978;5.934;2023-04-24T13:10:12;4.63;;;1.35;;
75358;SDS011;64046;51.978;5.934;2023-04-24T13:12:42;3.60;;;1.10;;
75358;SDS011;64046;51.978;5.934;2023-04-24T13:15:12;5.22;;;1.42;;
75358;SDS011;64046;51.978;5.934;2023-04-24T13:17:41;5.75;;;1.58;;
75358;SDS011;64046;51.978;5.934;2023-04-24T13:20:10;3.30;;;1.15;;
75358;SDS011;64046;51.978;5.934;2023-04-24T13:22:39;5.30;;;1.40;;
75358;SDS011;64046;51.978;5.934;2023-04-24T13:25:08;3.85;;;1.30;;
75358;SDS011;64046;51.978;5.934;2023-04-24T13:27:40;6.63;;;1.40;;
75358;SDS011;64046;51.978;5.934;2023-04-24T13:30:10;3.25;;;1.52;;
75358;SDS011;64046;51.978;5.934;2023-04-24T13:32:40;4.70;;;1.35;;
75358;SDS011;64046;51.978;5.934;2023-04-24T13:35:09;6.25;;;1.40;;
75358;SDS011;64046;51.978;5.934;2023-04-24T13:37:38;5.75;;;1.50;;
75358;SDS011;64046;51.978;5.934;2023-04-24T13:40:08;7.03;;;1.85;;
75358;SDS011;64046;51.978;5.934;2023-04-24T13:42:38;5.00;;;1.67;;
75358;SDS011;64046;51.978;5.934;2023-04-24T13:45:10;10.20;;;2.05;;
75358;SDS011;64046;51.978;5.934;2023-04-24T13:47:39;9.23;;;1.90;;
75358;SDS011;64046;51.978;5.934;2023-04-24T13:50:09;6.18;;;1.80;;
75358;SDS011;64046;51.978;5.934;2023-04-24T13:52:38;7.18;;;1.60;;
75358;SDS011;64046;51.978;5.934;2023-04-24T13:55:08;5.53;;;1.88;;
75358;SDS011;64046;51.978;5.934;2023-04-24T13:57:37;8.43;;;2.50;;
75358;SDS011;64046;51.978;5.934;2023-04-24T14:00:09;8.23;;;2.15;;
75358;SDS011;64046;51.978;5.934;2023-04-24T14:02:39;8.88;;;2.22;;
75358;SDS011;64046;51.978;5.934;2023-04-24T14:05:08;5.88;;;1.77;;
75358;SDS011;64046;51.978;5.934;2023-04-24T14:07:39;9.15;;;1.95;;
75358;SDS011;64046;51.978;5.934;2023-04-24T14:10:09;8.43;;;2.17;;
75358;SDS011;64046;51.978;5.934;2023-04-24T14:12:38;7.13;;;1.83;;
75358;SDS011;64046;51.978;5.934;2023-04-24T14:15:10;7.47;;;1.90;;
75358;SDS011;64046;51.978;5.934;2023-04-24T14:17:40;10.05;;;2.00;;
75358;SDS011;64046;51.978;5.934;2023-04-24T14:20:09;7.15;;;2.42;;
75358;SDS011;64046;51.978;5.934;2023-04-24T14:22:40;10.98;;;3.40;;
75358;SDS011;64046;51.978;5.934;2023-04-24T14:25:09;11.45;;;2.78;;
75358;SDS011;64046;51.978;5.934;2023-04-24T14:27:38;7.78;;;2.13;;
75358;SDS011;64046;51.978;5.934;2023-04-24T14:30:08;6.47;;;2.42;;
75358;SDS011;64046;51.978;5.934;2023-04-24T14:32:41;7.82;;;2.30;;
75358;SDS011;64046;51.978;5.934;2023-04-24T14:35:10;9.35;;;2.40;;
75358;SDS011;64046;51.978;5.934;2023-04-24T14:37:39;5.90;;;2.13;;
75358;SDS011;64046;51.978;5.934;2023-04-24T14:40:09;11.43;;;2.13;;
75358;SDS011;64046;51.978;5.934;2023-04-24T14:42:39;9.70;;;2.00;;
75358;SDS011;64046;51.978;5.934;2023-04-24T14:45:11;9.73;;;2.30;;
75358;SDS011;64046;51.978;5.934;2023-04-24T14:47:40;12.95;;;2.85;;
75358;SDS011;64046;51.978;5.934;2023-04-24T14:50:10;5.95;;;1.92;;
75358;SDS011;64046;51.978;5.934;2023-04-24T14:52:39;7.53;;;2.72;;
75358;SDS011;64046;51.978;5.934;2023-04-24T14:55:08;7.53;;;2.47;;
75358;SDS011;64046;51.978;5.934;2023-04-24T14:57:37;10.55;;;2.55;;
75358;SDS011;64046;51.978;5.934;2023-04-24T15:00:07;14.82;;;2.67;;
75358;SDS011;64046;51.978;5.934;2023-04-24T15:02:40;14.15;;;2.97;;
75358;SDS011;64046;51.978;5.934;2023-04-24T15:05:10;6.55;;;2.35;;
75358;SDS011;64046;51.978;5.934;2023-04-24T15:07:39;7.97;;;2.60;;
75358;SDS011;64046;51.978;5.934;2023-04-24T15:10:09;10.60;;;2.83;;